createdAt,value
2019-05-26T00:01:21.886Z,63.50
2019-05-26T00:03:52.422Z,63.50
2019-05-26T00:06:22.959Z,63.60
2019-05-26T00:08:54.311Z,63.10
2019-05-26T00:11:24.886Z,62.70
2019-05-26T00:13:55.539Z,62.30
2019-05-26T00:16:26.803Z,61.70
2019-05-26T00:18:57.408Z,61.40
2019-05-26T00:21:28.073Z,61.20
2019-05-26T00:24:00.099Z,61.00
2019-05-26T00:26:31.396Z,60.30
2019-05-26T00:29:02.431Z,60.40
2019-05-26T00:31:34.294Z,61.10
2019-05-26T00:34:04.871Z,61.20
2019-05-26T00:36:35.398Z,61.20
2019-05-26T00:39:07.387Z,60.00
2019-05-26T00:41:38.141Z,59.60
2019-05-26T00:44:08.763Z,59.90
2019-05-26T00:46:39.198Z,59.80
2019-05-26T00:49:10.220Z,59.60
2019-05-26T00:51:40.952Z,59.50
2019-05-26T00:54:12.395Z,59.10
2019-05-26T00:56:43.873Z,58.60
2019-05-26T00:59:14.810Z,58.20
2019-05-26T01:01:46.286Z,58.30
2019-05-26T01:04:16.908Z,57.90
2019-05-26T01:06:47.503Z,57.70
2019-05-26T01:09:18.081Z,58.20
2019-05-26T01:11:48.775Z,58.60
2019-05-26T01:14:19.335Z,59.00
2019-05-26T01:16:49.929Z,58.30
2019-05-26T01:19:20.495Z,58.20
2019-05-26T01:21:52.153Z,58.70
2019-05-26T01:24:22.838Z,58.80
2019-05-26T01:26:53.429Z,59.80
2019-05-26T01:29:24.430Z,60.00
2019-05-26T01:31:55.951Z,61.40
2019-05-26T01:34:26.975Z,63.60
2019-05-26T01:36:57.693Z,63.50
2019-05-26T01:39:28.439Z,65.50
2019-05-26T01:41:59.583Z,64.10
2019-05-26T01:44:30.144Z,65.20
2019-05-26T01:47:00.766Z,66.60
2019-05-26T01:49:31.467Z,67.40
2019-05-26T01:52:02.099Z,68.20
2019-05-26T01:54:33.079Z,67.00
2019-05-26T01:57:03.299Z,66.80
2019-05-26T01:59:33.893Z,68.00
2019-05-26T02:02:05.051Z,68.70
2019-05-26T02:04:35.558Z,68.40
2019-05-26T02:07:06.095Z,67.80
2019-05-26T02:09:36.546Z,68.50
2019-05-26T02:12:09.199Z,68.30
2019-05-26T02:14:39.848Z,67.20
2019-05-26T02:17:10.475Z,67.70
2019-05-26T02:19:42.605Z,68.50
2019-05-26T02:22:13.746Z,69.60
2019-05-26T02:24:44.359Z,68.80
2019-05-26T02:27:14.845Z,69.10
2019-05-26T02:29:46.516Z,69.40
2019-05-26T02:32:17.019Z,69.20
2019-05-26T02:34:47.571Z,69.30
2019-05-26T02:37:18.080Z,68.50
2019-05-26T02:39:48.568Z,68.80
2019-05-26T02:42:19.810Z,69.10
2019-05-26T02:44:50.441Z,68.60
2019-05-26T02:47:22.355Z,68.00
2019-05-26T02:49:53.350Z,68.00
2019-05-26T02:52:25.099Z,68.50
2019-05-26T02:54:55.709Z,68.60
2019-05-26T02:57:26.313Z,68.20
2019-05-26T02:59:57.417Z,69.10
2019-05-26T03:02:29.070Z,68.10
2019-05-26T03:04:59.719Z,68.80
2019-05-26T03:07:31.390Z,68.50
2019-05-26T03:10:03.865Z,68.70
2019-05-26T03:12:36.900Z,69.10
2019-05-26T03:15:07.770Z,68.60
2019-05-26T03:17:41.479Z,68.60
2019-05-26T03:20:14.898Z,70.20
2019-05-26T03:22:49.050Z,68.70
2019-05-26T03:25:20.241Z,68.80
2019-05-26T03:27:50.945Z,68.60
2019-05-26T03:30:21.961Z,68.10
2019-05-26T03:32:56.127Z,68.90
2019-05-26T03:35:26.848Z,68.70
2019-05-26T03:37:57.392Z,68.60
2019-05-26T03:40:28.110Z,68.50
2019-05-26T03:43:00.219Z,68.20
2019-05-26T03:45:51.396Z,68.40
2019-05-26T03:48:21.866Z,68.10
2019-05-26T03:50:52.508Z,67.50
2019-05-26T03:53:24.232Z,67.70
2019-05-26T03:55:54.876Z,67.20
2019-05-26T03:58:25.384Z,67.80
2019-05-26T04:00:56.646Z,67.30
2019-05-26T04:03:27.152Z,67.40
2019-05-26T04:05:57.705Z,67.70
2019-05-26T04:08:28.701Z,67.80
2019-05-26T04:10:59.185Z,67.90
2019-05-26T04:13:29.708Z,67.70
2019-05-26T04:16:00.242Z,67.80
2019-05-26T04:18:31.097Z,68.00
2019-05-26T04:21:01.728Z,67.30
2019-05-26T04:23:32.512Z,66.80
2019-05-26T04:26:03.051Z,66.70
2019-05-26T04:28:33.675Z,67.10
2019-05-26T04:31:04.517Z,67.70
2019-05-26T04:33:36.973Z,66.80
2019-05-26T04:36:07.937Z,66.90
2019-05-26T04:38:38.576Z,66.90
2019-05-26T04:41:09.245Z,66.90
2019-05-26T04:43:39.858Z,66.60
2019-05-26T04:46:10.386Z,66.60
2019-05-26T04:48:40.911Z,66.50
2019-05-26T04:51:12.191Z,66.40
2019-05-26T04:53:43.389Z,67.10
2019-05-26T04:56:14.341Z,66.10
2019-05-26T04:58:45.048Z,66.20
2019-05-26T05:01:15.605Z,65.50
2019-05-26T05:03:46.144Z,65.50
2019-05-26T05:06:17.009Z,64.40
2019-05-26T05:08:47.541Z,64.40
2019-05-26T05:11:18.134Z,64.40
2019-05-26T05:13:48.745Z,64.40
2019-05-26T05:16:20.108Z,64.40
2019-05-26T05:18:50.698Z,64.40
2019-05-26T05:21:21.431Z,64.50
2019-05-26T05:23:51.997Z,64.40
2019-05-26T05:26:22.778Z,64.20
2019-05-26T05:28:53.248Z,64.10
2019-05-26T05:31:23.991Z,63.60
2019-05-26T05:33:54.622Z,64.10
2019-05-26T05:36:25.858Z,64.30
2019-05-26T05:38:56.471Z,64.30
2019-05-26T05:41:28.533Z,64.20
2019-05-26T05:43:59.134Z,63.70
2019-05-26T05:46:29.807Z,63.70
2019-05-26T05:49:00.961Z,63.20
2019-05-26T05:51:31.587Z,63.20
2019-05-26T05:54:02.694Z,63.00
2019-05-26T05:56:33.258Z,63.30
2019-05-26T05:59:03.792Z,62.90
2019-05-26T06:01:35.390Z,62.90
2019-05-26T06:04:05.958Z,62.80
2019-05-26T06:06:36.492Z,62.40
2019-05-26T06:09:07.818Z,62.40
2019-05-26T06:11:38.772Z,62.60
2019-05-26T06:14:10.974Z,62.80
2019-05-26T06:16:41.643Z,62.60
2019-05-26T06:19:12.330Z,63.10
2019-05-26T06:21:43.522Z,63.60
2019-05-26T06:24:14.372Z,63.60
2019-05-26T06:26:45.104Z,63.60
2019-05-26T06:29:16.408Z,63.70
2019-05-26T06:31:47.800Z,63.60
2019-05-26T06:34:18.487Z,63.70
2019-05-26T06:36:49.569Z,63.60
2019-05-26T06:39:20.885Z,64.40
2019-05-26T06:41:51.487Z,64.50
2019-05-26T06:44:22.023Z,64.90
2019-05-26T06:46:52.544Z,65.00
2019-05-26T06:49:23.428Z,65.00
2019-05-26T06:51:54.221Z,65.30
2019-05-26T06:54:24.890Z,65.40
2019-05-26T06:56:56.028Z,64.70
2019-05-26T06:59:27.142Z,64.10
2019-05-26T07:01:57.820Z,63.00
2019-05-26T07:04:28.315Z,62.10
2019-05-26T07:06:58.822Z,60.90
2019-05-26T07:09:29.660Z,60.70
2019-05-26T07:12:00.724Z,60.80
2019-05-26T07:14:31.494Z,61.30
2019-05-26T07:17:02.939Z,61.70
2019-05-26T07:19:34.135Z,61.80
2019-05-26T07:22:05.753Z,61.60
2019-05-26T07:24:38.488Z,61.60
2019-05-26T07:27:09.685Z,61.60
2019-05-26T07:29:40.290Z,62.00
2019-05-26T07:32:10.994Z,61.70
2019-05-26T07:34:41.671Z,61.10
2019-05-26T07:37:12.536Z,60.90
2019-05-26T07:39:43.243Z,61.10
2019-05-26T07:42:14.233Z,61.20
2019-05-26T07:44:44.986Z,60.90
2019-05-26T07:47:16.101Z,60.60
2019-05-26T07:49:47.125Z,60.70
2019-05-26T07:52:17.826Z,60.70
2019-05-26T07:54:48.581Z,60.90
2019-05-26T07:57:19.808Z,60.10
2019-05-26T07:59:56.879Z,59.80
2019-05-26T08:02:29.775Z,60.00
2019-05-26T08:05:01.292Z,60.20
2019-05-26T08:07:33.318Z,59.80
2019-05-26T08:10:06.280Z,59.90
2019-05-26T08:12:37.023Z,59.60
2019-05-26T08:15:08.585Z,59.10
2019-05-26T08:17:39.931Z,59.00
2019-05-26T08:20:13.747Z,59.10
2019-05-26T08:22:44.601Z,59.00
2019-05-26T08:25:15.597Z,59.20
2019-05-26T08:27:46.698Z,58.80
2019-05-26T08:30:19.037Z,57.90
2019-05-26T08:32:50.208Z,57.50
2019-05-26T08:35:24.215Z,58.10
2019-05-26T08:37:55.616Z,58.10
2019-05-26T08:40:26.596Z,57.60
2019-05-26T08:42:57.983Z,57.50
2019-05-26T08:45:29.286Z,57.00
2019-05-26T08:47:59.803Z,56.80
2019-05-26T08:50:34.152Z,57.00
2019-05-26T08:53:03.888Z,56.70
2019-05-26T08:55:34.834Z,56.50
2019-05-26T08:58:06.804Z,56.20
2019-05-26T09:00:39.304Z,56.10
2019-05-26T09:03:10.620Z,56.00
2019-05-26T09:05:42.243Z,55.80
2019-05-26T09:08:13.171Z,55.50
2019-05-26T09:10:45.474Z,55.80
2019-05-26T09:13:16.052Z,55.50
2019-05-26T09:15:48.172Z,55.00
2019-05-26T09:18:18.739Z,55.00
2019-05-26T09:20:50.284Z,54.70
2019-05-26T09:23:21.510Z,54.20
2019-05-26T09:25:52.018Z,54.00
2019-05-26T09:28:23.359Z,55.10
2019-05-26T09:30:53.892Z,54.50
2019-05-26T09:33:26.885Z,54.50
2019-05-26T09:35:57.463Z,54.50
2019-05-26T09:38:28.236Z,53.50
2019-05-26T09:40:59.787Z,53.20
2019-05-26T09:43:30.766Z,53.00
2019-05-26T09:46:02.125Z,53.20
2019-05-26T09:48:33.720Z,53.20
2019-05-26T09:51:04.488Z,53.10
2019-05-26T09:53:35.190Z,53.10
2019-05-26T09:56:06.362Z,52.80
2019-05-26T09:58:37.646Z,52.50
2019-05-26T10:01:08.768Z,52.30
2019-05-26T10:03:40.012Z,51.70
2019-05-26T10:06:11.583Z,51.40
2019-05-26T10:08:42.177Z,51.00
2019-05-26T10:11:13.328Z,50.40
2019-05-26T10:13:44.575Z,50.70
2019-05-26T10:16:15.070Z,50.70
2019-05-26T10:18:46.444Z,50.40
2019-05-26T10:21:19.470Z,51.10
2019-05-26T10:23:53.053Z,50.50
2019-05-26T10:26:23.537Z,49.90
2019-05-26T10:28:55.291Z,49.50
2019-05-26T10:31:25.853Z,49.00
2019-05-26T10:33:57.646Z,48.30
2019-05-26T10:36:29.332Z,47.70
2019-05-26T10:39:01.721Z,46.40
2019-05-26T10:41:32.312Z,44.70
2019-05-26T10:44:04.667Z,44.00
2019-05-26T10:46:35.585Z,43.40
2019-05-26T10:49:06.254Z,43.20
2019-05-26T10:51:38.003Z,41.80
2019-05-26T10:54:08.755Z,40.90
2019-05-26T10:56:39.981Z,40.50
2019-05-26T10:59:11.088Z,40.10
2019-05-26T11:01:43.424Z,39.50
2019-05-26T11:04:14.042Z,40.40
2019-05-26T11:06:45.171Z,39.80
2019-05-26T11:09:16.142Z,40.00
2019-05-26T11:11:47.926Z,39.70
2019-05-26T11:14:27.814Z,39.10
2019-05-26T11:17:55.745Z,39.60
2019-05-26T11:20:26.812Z,40.50
2019-05-26T11:22:57.379Z,38.60
2019-05-26T11:25:30.204Z,37.20
2019-05-26T11:28:00.795Z,36.80
2019-05-26T11:30:31.323Z,36.60
2019-05-26T11:33:01.954Z,35.00
2019-05-26T11:35:32.559Z,34.80
2019-05-26T11:38:03.879Z,34.90
2019-05-26T11:40:34.399Z,34.30
2019-05-26T11:43:16.352Z,34.50
2019-05-26T11:45:37.163Z,34.50
2019-05-26T11:48:07.599Z,33.50
2019-05-26T11:50:38.955Z,32.90
2019-05-26T11:53:10.247Z,32.10
2019-05-26T11:55:41.088Z,32.20
2019-05-26T11:58:11.703Z,31.70
2019-05-26T12:00:42.804Z,31.40
2019-05-26T12:03:13.997Z,31.00
2019-05-26T12:05:45.534Z,30.50
2019-05-26T12:08:16.663Z,29.80
2019-05-26T12:10:48.184Z,29.50
2019-05-26T12:13:19.427Z,29.10
2019-05-26T12:15:50.320Z,29.10
2019-05-26T12:18:21.233Z,29.00
2019-05-26T12:20:51.843Z,28.60
2019-05-26T12:23:23.117Z,28.60
2019-05-26T12:25:54.688Z,28.80
2019-05-26T12:28:25.311Z,28.50
2019-05-26T12:30:55.818Z,29.10
2019-05-26T12:33:26.829Z,29.10
2019-05-26T12:35:57.481Z,28.80
2019-05-26T12:38:28.359Z,28.50
2019-05-26T12:40:58.944Z,28.50
2019-05-26T12:43:29.466Z,28.20
2019-05-26T12:46:00.036Z,28.00
2019-05-26T12:48:30.778Z,28.00
2019-05-26T12:51:01.568Z,27.40
2019-05-26T12:53:32.828Z,28.40
2019-05-26T12:56:03.343Z,28.40
2019-05-26T12:58:34.294Z,27.50
2019-05-26T13:01:05.161Z,27.90
2019-05-26T13:03:36.497Z,27.20
2019-05-26T13:06:08.439Z,27.60
2019-05-26T13:08:42.157Z,27.70
2019-05-26T13:11:13.004Z,26.80
2019-05-26T13:13:44.555Z,26.80
2019-05-26T13:16:16.114Z,26.20
2019-05-26T13:18:47.232Z,25.40
2019-05-26T13:21:17.876Z,25.40
2019-05-26T13:23:49.770Z,25.10
2019-05-26T13:26:21.636Z,25.10
2019-05-26T13:28:53.610Z,25.60
2019-05-26T13:31:24.944Z,25.50
2019-05-26T13:33:56.600Z,25.10
2019-05-26T13:36:27.131Z,24.90
2019-05-26T13:38:58.101Z,25.20
2019-05-26T13:41:29.632Z,24.80
2019-05-26T13:44:00.769Z,24.90
2019-05-26T13:46:32.237Z,24.80
2019-05-26T13:49:05.470Z,24.40
2019-05-26T13:51:36.207Z,24.00
2019-05-26T13:54:07.629Z,23.90
2019-05-26T13:56:39.054Z,23.50
2019-05-26T13:59:10.424Z,24.00
2019-05-26T14:01:44.215Z,24.10
2019-05-26T14:04:37.555Z,23.70
2019-05-26T14:07:11.202Z,23.90
2019-05-26T14:09:44.914Z,23.50
2019-05-26T14:12:18.290Z,23.50
2019-05-26T14:14:49.935Z,23.60
2019-05-26T14:17:21.551Z,24.00
2019-05-26T14:19:54.187Z,23.90
2019-05-26T14:22:25.443Z,23.60
2019-05-26T14:24:56.247Z,24.10
2019-05-26T14:27:27.544Z,24.20
2019-05-26T14:29:58.864Z,24.20
2019-05-26T14:32:29.595Z,24.70
2019-05-26T14:35:48.331Z,25.00
2019-05-26T14:38:22.314Z,25.20
2019-05-26T14:40:53.299Z,26.80
2019-05-26T14:43:24.505Z,28.50
2019-05-26T14:46:15.159Z,29.90
2019-05-26T14:48:47.979Z,31.30
2019-05-26T14:51:25.330Z,32.80
2019-05-26T14:53:57.771Z,34.10
2019-05-26T14:56:28.495Z,34.90
2019-05-26T14:59:00.274Z,35.40
2019-05-26T15:01:31.300Z,35.80
2019-05-26T15:04:01.768Z,36.30
2019-05-26T15:06:32.270Z,36.60
2019-05-26T15:09:03.942Z,36.80
2019-05-26T15:11:34.481Z,36.80
2019-05-26T15:14:05.019Z,36.90
2019-05-26T15:16:35.610Z,36.90
2019-05-26T15:19:06.784Z,37.10
2019-05-26T15:21:38.276Z,37.10
2019-05-26T15:24:08.879Z,36.70
2019-05-26T15:26:40.118Z,37.00
2019-05-26T15:29:11.061Z,37.60
2019-05-26T15:31:41.765Z,37.00
2019-05-26T15:34:13.141Z,37.30
2019-05-26T15:36:43.793Z,37.70
2019-05-26T15:39:14.601Z,37.90
2019-05-26T15:41:45.883Z,38.50
2019-05-26T15:44:21.656Z,38.90
2019-05-26T15:46:52.269Z,38.40
2019-05-26T15:49:23.397Z,38.30
2019-05-26T15:51:54.048Z,38.40
2019-05-26T15:54:25.770Z,38.50
2019-05-26T15:56:57.367Z,38.30
2019-05-26T15:59:28.288Z,38.40
2019-05-26T16:01:59.115Z,38.40
2019-05-26T16:04:29.680Z,38.20
2019-05-26T16:07:00.362Z,38.70
2019-05-26T16:09:31.806Z,38.60
2019-05-26T16:12:02.914Z,39.20
2019-05-26T16:14:33.540Z,39.40
2019-05-26T16:17:04.438Z,39.80
2019-05-26T16:19:35.068Z,39.70
2019-05-26T16:22:06.441Z,39.50
2019-05-26T16:24:37.769Z,39.90
2019-05-26T16:27:18.624Z,40.30
2019-05-26T16:29:41.581Z,40.40
2019-05-26T16:32:12.152Z,41.20
2019-05-26T16:34:43.195Z,40.60
2019-05-26T16:37:13.833Z,41.30
2019-05-26T16:39:44.924Z,41.20
2019-05-26T16:42:15.512Z,41.00
2019-05-26T16:44:46.343Z,41.60
2019-05-26T16:47:17.611Z,40.70
2019-05-26T16:49:49.014Z,41.50
2019-05-26T16:52:20.530Z,40.90
2019-05-26T16:54:51.669Z,40.90
2019-05-26T16:57:22.338Z,41.50
2019-05-26T16:59:53.622Z,41.70
2019-05-26T17:02:27.241Z,41.60
2019-05-26T17:04:58.553Z,41.00
2019-05-26T17:07:30.707Z,41.00
2019-05-26T17:10:01.387Z,41.00
2019-05-26T17:12:32.505Z,40.70
2019-05-26T17:15:03.317Z,41.00
2019-05-26T17:17:34.309Z,40.70
2019-05-26T17:20:06.447Z,40.90
2019-05-26T17:22:37.682Z,41.00
2019-05-26T17:25:08.720Z,40.90
2019-05-26T17:27:40.694Z,41.00
2019-05-26T17:30:11.574Z,40.80
2019-05-26T17:32:42.226Z,40.80
2019-05-26T17:35:13.059Z,40.80
2019-05-26T17:37:44.847Z,40.80
2019-05-26T17:40:16.690Z,40.80
2019-05-26T17:42:48.849Z,41.00
2019-05-26T17:45:19.465Z,41.20
2019-05-26T17:47:49.961Z,40.80
2019-05-26T17:50:20.937Z,41.30
2019-05-26T17:52:51.660Z,41.20
2019-05-26T17:55:22.754Z,41.40
2019-05-26T17:57:53.751Z,41.60
2019-05-26T18:00:24.435Z,41.80
2019-05-26T18:02:55.465Z,42.10
2019-05-26T18:05:26.926Z,42.30
2019-05-26T18:07:57.656Z,42.70
2019-05-26T18:10:28.248Z,42.60
2019-05-26T18:12:59.380Z,42.60
2019-05-26T18:15:31.290Z,42.80
2019-05-26T18:18:02.406Z,43.00
2019-05-26T18:20:35.975Z,43.30
2019-05-26T18:23:08.241Z,43.40
2019-05-26T18:25:39.816Z,43.50
2019-05-26T18:28:10.934Z,43.90
2019-05-26T18:30:41.686Z,44.00
2019-05-26T18:33:12.225Z,44.10
2019-05-26T18:35:44.596Z,44.20
2019-05-26T18:38:15.290Z,44.40
2019-05-26T18:40:45.951Z,44.60
2019-05-26T18:43:17.069Z,44.70
2019-05-26T18:45:50.805Z,44.80
2019-05-26T18:48:21.516Z,45.60
2019-05-26T18:50:52.881Z,46.30
2019-05-26T18:53:24.128Z,46.80
2019-05-26T18:55:54.737Z,46.50
2019-05-26T18:58:25.393Z,46.00
2019-05-26T19:00:56.235Z,46.00
2019-05-26T19:03:26.838Z,46.70
2019-05-26T19:06:03.631Z,47.60
2019-05-26T19:08:35.226Z,47.80
2019-05-26T19:11:05.986Z,48.90
2019-05-26T19:13:38.325Z,49.30
2019-05-26T19:16:10.296Z,49.80
2019-05-26T19:18:41.439Z,50.50
2019-05-26T19:21:12.554Z,50.40
2019-05-26T19:23:43.382Z,50.40
2019-05-26T19:26:14.357Z,50.90
2019-05-26T19:28:46.162Z,51.40
2019-05-26T19:31:17.757Z,51.40
2019-05-26T19:33:48.645Z,51.70
2019-05-26T19:36:20.347Z,52.20
2019-05-26T19:38:52.181Z,52.30
2019-05-26T19:41:24.346Z,52.40
2019-05-26T19:43:55.799Z,52.60
2019-05-26T19:46:27.707Z,52.90
2019-05-26T19:48:59.121Z,52.90
2019-05-26T19:51:31.170Z,53.00
2019-05-26T19:54:03.171Z,53.30
2019-05-26T19:56:33.875Z,53.60
2019-05-26T19:59:04.853Z,53.80
2019-05-26T20:01:37.068Z,53.90
2019-05-26T20:04:07.961Z,54.10
2019-05-26T20:06:38.854Z,54.50
2019-05-26T20:09:10.313Z,54.60
2019-05-26T20:11:40.938Z,54.90
2019-05-26T20:14:11.630Z,54.90
2019-05-26T20:16:43.027Z,54.90
2019-05-26T20:19:14.633Z,55.20
2019-05-26T20:21:45.345Z,55.00
2019-05-26T20:24:15.878Z,55.30
2019-05-26T20:26:46.732Z,55.50
2019-05-26T20:29:17.346Z,55.40
2019-05-26T20:31:49.283Z,55.60
2019-05-26T20:34:19.954Z,55.60
2019-05-26T20:36:51.055Z,55.70
2019-05-26T20:39:22.169Z,55.60
2019-05-26T20:41:52.750Z,55.90
2019-05-26T20:44:23.275Z,55.80
2019-05-26T20:46:53.853Z,55.90
2019-05-26T20:49:24.479Z,55.90
2019-05-26T20:51:55.062Z,56.30
2019-05-26T20:54:26.540Z,56.50
2019-05-26T20:56:59.754Z,56.80
2019-05-26T20:59:30.279Z,56.60
2019-05-26T21:02:00.822Z,56.40
2019-05-26T21:04:31.680Z,56.10
2019-05-26T21:07:04.995Z,56.10
2019-05-26T21:09:36.345Z,56.20
2019-05-26T21:12:10.705Z,56.20
2019-05-26T21:14:41.300Z,56.30
2019-05-26T21:17:11.776Z,56.50
2019-05-26T21:19:42.435Z,56.80
2019-05-26T21:22:13.493Z,56.80
2019-05-26T21:24:44.804Z,56.80
2019-05-26T21:27:15.387Z,56.50
2019-05-26T21:29:45.890Z,56.60
2019-05-26T21:32:16.463Z,56.50
2019-05-26T21:34:47.442Z,56.50
2019-05-26T21:37:18.136Z,56.60
2019-05-26T21:39:48.684Z,56.60
2019-05-26T21:42:19.975Z,56.60
2019-05-26T21:44:51.724Z,56.50
2019-05-26T21:47:23.236Z,56.40
2019-05-26T21:49:53.879Z,56.40
2019-05-26T21:52:24.628Z,56.30
2019-05-26T21:54:56.117Z,56.30
2019-05-26T21:57:27.074Z,56.40
2019-05-26T21:59:57.615Z,56.80
2019-05-26T22:02:28.311Z,57.40
2019-05-26T22:04:58.942Z,57.60
2019-05-26T22:07:29.450Z,57.80
2019-05-26T22:10:00.124Z,57.70
2019-05-26T22:12:30.884Z,57.80
2019-05-26T22:15:01.519Z,58.00
2019-05-26T22:17:32.606Z,57.90
2019-05-26T22:20:03.549Z,58.70
2019-05-26T22:22:36.011Z,58.60
2019-05-26T22:25:06.927Z,58.50
2019-05-26T22:27:37.560Z,58.60
2019-05-26T22:30:09.173Z,59.00
2019-05-26T22:32:40.495Z,59.40
2019-05-26T22:35:11.146Z,59.20
2019-05-26T22:37:41.875Z,59.00
2019-05-26T22:40:12.709Z,59.10
2019-05-26T22:42:43.274Z,59.00
2019-05-26T22:45:14.428Z,59.20
2019-05-26T22:47:45.314Z,59.20
2019-05-26T22:50:16.119Z,59.30
2019-05-26T22:52:46.640Z,59.40
2019-05-26T22:55:17.367Z,59.50
2019-05-26T22:57:48.278Z,59.30
2019-05-26T23:00:19.665Z,59.20
2019-05-26T23:02:51.443Z,59.40
2019-05-26T23:05:22.655Z,59.50
2019-05-26T23:07:53.362Z,59.40
2019-05-26T23:10:23.928Z,59.40
2019-05-26T23:12:54.498Z,59.80
2019-05-26T23:15:25.773Z,60.40
2019-05-26T23:17:56.358Z,59.90
2019-05-26T23:20:26.929Z,59.80
2019-05-26T23:22:57.446Z,59.50
2019-05-26T23:25:28.965Z,59.20
2019-05-26T23:27:59.547Z,58.80
2019-05-26T23:30:30.434Z,59.00
2019-05-26T23:33:01.027Z,59.40
2019-05-26T23:35:31.991Z,60.00
2019-05-26T23:38:03.228Z,60.10
2019-05-26T23:40:33.977Z,59.90
2019-05-26T23:43:06.269Z,60.00
2019-05-26T23:45:36.934Z,60.40
2019-05-26T23:48:07.591Z,60.90
2019-05-26T23:50:38.110Z,61.10
2019-05-26T23:53:09.252Z,61.20
2019-05-26T23:55:39.786Z,61.40
2019-05-26T23:58:10.614Z,61.10
